sensor_id;sensor_type;location;lat;lon;timestamp;P1;durP1;ratioP1;P2;durP2;ratioP2
33864;SDS011;20159;51.072;13.526;2022-07-04T00:00:06;2.40;;;1.95;;
33864;SDS011;20159;51.072;13.526;2022-07-04T00:02:33;2.13;;;1.85;;
33864;SDS011;20159;51.072;13.526;2022-07-04T00:05:00;2.65;;;1.80;;
33864;SDS011;20159;51.072;13.526;2022-07-04T00:07:26;4.32;;;1.98;;
33864;SDS011;20159;51.072;13.526;2022-07-04T00:09:51;2.42;;;1.73;;
33864;SDS011;20159;51.072;13.526;2022-07-04T00:12:17;2.13;;;1.65;;
33864;SDS011;20159;51.072;13.526;2022-07-04T00:14:42;3.20;;;1.67;;
33864;SDS011;20159;51.072;13.526;2022-07-04T00:17:08;2.90;;;1.80;;
33864;SDS011;20159;51.072;13.526;2022-07-04T00:19:34;2.72;;;2.00;;
33864;SDS011;20159;51.072;13.526;2022-07-04T00:21:59;2.65;;;1.80;;
33864;SDS011;20159;51.072;13.526;2022-07-04T00:24:25;2.13;;;1.70;;
33864;SDS011;20159;51.072;13.526;2022-07-04T00:26:50;2.72;;;1.60;;
33864;SDS011;20159;51.072;13.526;2022-07-04T00:29:16;2.38;;;1.58;;
33864;SDS011;20159;51.072;13.526;2022-07-04T00:31:42;3.53;;;1.88;;
33864;SDS011;20159;51.072;13.526;2022-07-04T00:34:08;2.70;;;1.67;;
33864;SDS011;20159;51.072;13.526;2022-07-04T00:36:34;2.25;;;1.38;;
33864;SDS011;20159;51.072;13.526;2022-07-04T00:38:59;2.05;;;1.60;;
33864;SDS011;20159;51.072;13.526;2022-07-04T00:41:25;2.40;;;1.45;;
33864;SDS011;20159;51.072;13.526;2022-07-04T00:44:01;2.88;;;1.58;;
33864;SDS011;20159;51.072;13.526;2022-07-04T00:46:34;1.70;;;1.30;;
33864;SDS011;20159;51.072;13.526;2022-07-04T00:49:01;4.15;;;1.67;;
33864;SDS011;20159;51.072;13.526;2022-07-04T00:51:29;2.05;;;1.48;;
33864;SDS011;20159;51.072;13.526;2022-07-04T00:53:55;2.47;;;1.60;;
33864;SDS011;20159;51.072;13.526;2022-07-04T00:56:21;2.17;;;1.50;;
33864;SDS011;20159;51.072;13.526;2022-07-04T00:58:48;2.20;;;1.60;;
33864;SDS011;20159;51.072;13.526;2022-07-04T01:01:15;2.17;;;1.40;;
33864;SDS011;20159;51.072;13.526;2022-07-04T01:03:41;1.63;;;1.30;;
33864;SDS011;20159;51.072;13.526;2022-07-04T01:06:07;1.60;;;1.27;;
33864;SDS011;20159;51.072;13.526;2022-07-04T01:08:36;2.20;;;1.17;;
33864;SDS011;20159;51.072;13.526;2022-07-04T01:11:04;1.80;;;1.40;;
33864;SDS011;20159;51.072;13.526;2022-07-04T01:13:30;1.60;;;1.40;;
33864;SDS011;20159;51.072;13.526;2022-07-04T01:15:55;1.95;;;1.48;;
33864;SDS011;20159;51.072;13.526;2022-07-04T01:18:21;1.50;;;1.30;;
33864;SDS011;20159;51.072;13.526;2022-07-04T01:20:46;3.00;;;1.23;;
33864;SDS011;20159;51.072;13.526;2022-07-04T01:23:12;2.25;;;1.30;;
33864;SDS011;20159;51.072;13.526;2022-07-04T01:25:38;3.15;;;1.52;;
33864;SDS011;20159;51.072;13.526;2022-07-04T01:28:03;2.25;;;1.33;;
33864;SDS011;20159;51.072;13.526;2022-07-04T01:30:29;2.95;;;1.30;;
33864;SDS011;20159;51.072;13.526;2022-07-04T01:32:56;2.85;;;1.40;;
33864;SDS011;20159;51.072;13.526;2022-07-04T01:35:22;2.88;;;1.42;;
33864;SDS011;20159;51.072;13.526;2022-07-04T01:37:51;1.58;;;1.30;;
33864;SDS011;20159;51.072;13.526;2022-07-04T01:40:16;1.50;;;1.38;;
33864;SDS011;20159;51.072;13.526;2022-07-04T01:42:42;2.30;;;1.50;;
33864;SDS011;20159;51.072;13.526;2022-07-04T01:45:09;2.40;;;1.42;;
33864;SDS011;20159;51.072;13.526;2022-07-04T01:47:35;3.05;;;1.77;;
33864;SDS011;20159;51.072;13.526;2022-07-04T01:50:01;2.08;;;1.20;;
33864;SDS011;20159;51.072;13.526;2022-07-04T01:52:28;1.80;;;1.50;;
33864;SDS011;20159;51.072;13.526;2022-07-04T01:54:54;1.92;;;1.50;;
33864;SDS011;20159;51.072;13.526;2022-07-04T01:57:19;2.97;;;1.42;;
33864;SDS011;20159;51.072;13.526;2022-07-04T01:59:45;1.98;;;1.20;;
33864;SDS011;20159;51.072;13.526;2022-07-04T02:02:29;3.65;;;1.40;;
33864;SDS011;20159;51.072;13.526;2022-07-04T02:04:55;2.15;;;1.55;;
33864;SDS011;20159;51.072;13.526;2022-07-04T02:07:20;2.05;;;1.38;;
33864;SDS011;20159;51.072;13.526;2022-07-04T02:09:46;3.10;;;1.77;;
33864;SDS011;20159;51.072;13.526;2022-07-04T02:12:11;2.92;;;1.20;;
33864;SDS011;20159;51.072;13.526;2022-07-04T02:14:56;1.70;;;1.33;;
33864;SDS011;20159;51.072;13.526;2022-07-04T02:17:21;3.90;;;1.38;;
33864;SDS011;20159;51.072;13.526;2022-07-04T02:19:47;2.13;;;1.40;;
33864;SDS011;20159;51.072;13.526;2022-07-04T02:22:13;3.28;;;1.27;;
33864;SDS011;20159;51.072;13.526;2022-07-04T02:24:39;3.67;;;1.40;;
33864;SDS011;20159;51.072;13.526;2022-07-04T02:27:06;1.58;;;1.30;;
33864;SDS011;20159;51.072;13.526;2022-07-04T02:29:32;2.25;;;1.40;;
33864;SDS011;20159;51.072;13.526;2022-07-04T02:31:57;2.00;;;1.30;;
33864;SDS011;20159;51.072;13.526;2022-07-04T02:34:23;1.95;;;1.40;;
33864;SDS011;20159;51.072;13.526;2022-07-04T02:36:49;1.88;;;1.58;;
33864;SDS011;20159;51.072;13.526;2022-07-04T02:39:15;1.63;;;1.30;;
33864;SDS011;20159;51.072;13.526;2022-07-04T02:41:41;1.85;;;1.50;;
33864;SDS011;20159;51.072;13.526;2022-07-04T02:44:06;1.70;;;1.45;;
33864;SDS011;20159;51.072;13.526;2022-07-04T02:46:32;1.58;;;1.23;;
33864;SDS011;20159;51.072;13.526;2022-07-04T02:48:58;2.13;;;1.42;;
33864;SDS011;20159;51.072;13.526;2022-07-04T02:51:24;2.15;;;1.50;;
33864;SDS011;20159;51.072;13.526;2022-07-04T02:53:49;3.28;;;1.20;;
33864;SDS011;20159;51.072;13.526;2022-07-04T02:56:15;2.50;;;1.25;;
33864;SDS011;20159;51.072;13.526;2022-07-04T02:58:40;1.75;;;1.45;;
33864;SDS011;20159;51.072;13.526;2022-07-04T03:01:06;2.00;;;1.58;;
33864;SDS011;20159;51.072;13.526;2022-07-04T03:03:32;2.35;;;1.48;;
33864;SDS011;20159;51.072;13.526;2022-07-04T03:05:58;2.00;;;1.63;;
33864;SDS011;20159;51.072;13.526;2022-07-04T03:08:23;1.92;;;1.40;;
33864;SDS011;20159;51.072;13.526;2022-07-04T03:10:49;1.73;;;1.45;;
33864;SDS011;20159;51.072;13.526;2022-07-04T03:13:16;2.50;;;1.67;;
33864;SDS011;20159;51.072;13.526;2022-07-04T03:15:42;2.08;;;1.55;;
33864;SDS011;20159;51.072;13.526;2022-07-04T03:18:07;3.15;;;1.52;;
33864;SDS011;20159;51.072;13.526;2022-07-04T03:20:33;2.55;;;1.70;;
33864;SDS011;20159;51.072;13.526;2022-07-04T03:22:58;2.08;;;1.40;;
33864;SDS011;20159;51.072;13.526;2022-07-04T03:25:24;2.92;;;1.40;;
33864;SDS011;20159;51.072;13.526;2022-07-04T03:27:49;4.22;;;1.40;;
33864;SDS011;20159;51.072;13.526;2022-07-04T03:30:15;2.42;;;1.40;;
33864;SDS011;20159;51.072;13.526;2022-07-04T03:32:40;2.15;;;1.52;;
33864;SDS011;20159;51.072;13.526;2022-07-04T03:35:06;3.08;;;1.83;;
33864;SDS011;20159;51.072;13.526;2022-07-04T03:37:32;2.90;;;1.67;;
33864;SDS011;20159;51.072;13.526;2022-07-04T03:39:57;2.63;;;1.73;;
33864;SDS011;20159;51.072;13.526;2022-07-04T03:42:23;1.98;;;1.40;;
33864;SDS011;20159;51.072;13.526;2022-07-04T03:44:48;2.97;;;1.50;;
33864;SDS011;20159;51.072;13.526;2022-07-04T03:47:14;2.92;;;1.73;;
33864;SDS011;20159;51.072;13.526;2022-07-04T03:49:39;2.03;;;1.50;;
33864;SDS011;20159;51.072;13.526;2022-07-04T03:52:05;2.08;;;1.67;;
33864;SDS011;20159;51.072;13.526;2022-07-04T03:54:31;1.92;;;1.60;;
33864;SDS011;20159;51.072;13.526;2022-07-04T03:56:56;2.85;;;1.55;;
33864;SDS011;20159;51.072;13.526;2022-07-04T03:59:22;3.30;;;1.40;;
33864;SDS011;20159;51.072;13.526;2022-07-04T04:01:48;6.40;;;1.60;;
33864;SDS011;20159;51.072;13.526;2022-07-04T04:04:13;5.28;;;1.60;;
33864;SDS011;20159;51.072;13.526;2022-07-04T04:06:57;3.92;;;1.67;;
33864;SDS011;20159;51.072;13.526;2022-07-04T04:09:22;4.32;;;1.70;;
33864;SDS011;20159;51.072;13.526;2022-07-04T04:11:49;1.90;;;1.50;;
33864;SDS011;20159;51.072;13.526;2022-07-04T04:14:15;2.95;;;1.83;;
33864;SDS011;20159;51.072;13.526;2022-07-04T04:16:41;2.10;;;1.67;;
33864;SDS011;20159;51.072;13.526;2022-07-04T04:19:07;3.38;;;1.90;;
33864;SDS011;20159;51.072;13.526;2022-07-04T04:21:33;1.55;;;1.45;;
33864;SDS011;20159;51.072;13.526;2022-07-04T04:23:59;2.03;;;1.50;;
33864;SDS011;20159;51.072;13.526;2022-07-04T04:26:25;1.92;;;1.50;;
33864;SDS011;20159;51.072;13.526;2022-07-04T04:28:51;3.67;;;1.85;;
33864;SDS011;20159;51.072;13.526;2022-07-04T04:31:17;2.13;;;1.60;;
33864;SDS011;20159;51.072;13.526;2022-07-04T04:33:42;2.67;;;1.65;;
33864;SDS011;20159;51.072;13.526;2022-07-04T04:36:08;3.33;;;1.65;;
33864;SDS011;20159;51.072;13.526;2022-07-04T04:38:33;3.28;;;1.90;;
33864;SDS011;20159;51.072;13.526;2022-07-04T04:40:59;2.35;;;1.60;;
33864;SDS011;20159;51.072;13.526;2022-07-04T04:43:25;3.08;;;1.42;;
33864;SDS011;20159;51.072;13.526;2022-07-04T04:45:50;2.97;;;1.67;;
33864;SDS011;20159;51.072;13.526;2022-07-04T04:48:16;2.85;;;1.70;;
33864;SDS011;20159;51.072;13.526;2022-07-04T04:50:41;2.90;;;1.98;;
33864;SDS011;20159;51.072;13.526;2022-07-04T04:53:06;2.15;;;1.70;;
33864;SDS011;20159;51.072;13.526;2022-07-04T04:55:32;3.75;;;1.83;;
33864;SDS011;20159;51.072;13.526;2022-07-04T04:57:57;2.35;;;1.75;;
33864;SDS011;20159;51.072;13.526;2022-07-04T05:00:23;3.55;;;1.80;;
33864;SDS011;20159;51.072;13.526;2022-07-04T05:02:48;3.65;;;1.95;;
33864;SDS011;20159;51.072;13.526;2022-07-04T05:05:14;4.97;;;1.98;;
33864;SDS011;20159;51.072;13.526;2022-07-04T05:07:39;5.35;;;1.70;;
33864;SDS011;20159;51.072;13.526;2022-07-04T05:10:05;2.35;;;1.60;;
33864;SDS011;20159;51.072;13.526;2022-07-04T05:12:31;2.22;;;1.92;;
33864;SDS011;20159;51.072;13.526;2022-07-04T05:14:57;5.00;;;1.95;;
33864;SDS011;20159;51.072;13.526;2022-07-04T05:17:22;2.83;;;1.90;;
33864;SDS011;20159;51.072;13.526;2022-07-04T05:19:48;2.33;;;1.88;;
33864;SDS011;20159;51.072;13.526;2022-07-04T05:22:14;2.67;;;1.73;;
33864;SDS011;20159;51.072;13.526;2022-07-04T05:24:39;3.05;;;1.63;;
33864;SDS011;20159;51.072;13.526;2022-07-04T05:27:06;2.08;;;1.42;;
33864;SDS011;20159;51.072;13.526;2022-07-04T05:29:32;3.75;;;1.48;;
33864;SDS011;20159;51.072;13.526;2022-07-04T05:31:57;2.28;;;1.50;;
33864;SDS011;20159;51.072;13.526;2022-07-04T05:34:23;2.95;;;1.48;;
33864;SDS011;20159;51.072;13.526;2022-07-04T05:36:48;2.50;;;1.40;;
33864;SDS011;20159;51.072;13.526;2022-07-04T05:39:14;2.25;;;1.33;;
33864;SDS011;20159;51.072;13.526;2022-07-04T05:41:40;2.38;;;1.30;;
33864;SDS011;20159;51.072;13.526;2022-07-04T05:44:05;2.03;;;1.25;;
33864;SDS011;20159;51.072;13.526;2022-07-04T05:46:31;2.05;;;1.20;;
33864;SDS011;20159;51.072;13.526;2022-07-04T05:48:56;3.10;;;1.33;;
33864;SDS011;20159;51.072;13.526;2022-07-04T05:51:22;1.77;;;1.20;;
33864;SDS011;20159;51.072;13.526;2022-07-04T05:53:47;1.30;;;1.00;;
33864;SDS011;20159;51.072;13.526;2022-07-04T05:56:13;2.78;;;1.23;;
33864;SDS011;20159;51.072;13.526;2022-07-04T05:58:39;2.13;;;1.05;;
33864;SDS011;20159;51.072;13.526;2022-07-04T06:01:05;2.20;;;1.20;;
33864;SDS011;20159;51.072;13.526;2022-07-04T06:03:31;2.65;;;1.20;;
33864;SDS011;20159;51.072;13.526;2022-07-04T06:05:56;2.55;;;1.02;;
33864;SDS011;20159;51.072;13.526;2022-07-04T06:08:22;1.90;;;1.13;;
33864;SDS011;20159;51.072;13.526;2022-07-04T06:10:48;1.52;;;0.85;;
33864;SDS011;20159;51.072;13.526;2022-07-04T06:13:14;2.65;;;1.20;;
33864;SDS011;20159;51.072;13.526;2022-07-04T06:15:40;1.67;;;1.10;;
33864;SDS011;20159;51.072;13.526;2022-07-04T06:18:05;2.05;;;1.05;;
33864;SDS011;20159;51.072;13.526;2022-07-04T06:20:31;2.50;;;1.30;;
33864;SDS011;20159;51.072;13.526;2022-07-04T06:22:56;2.65;;;1.02;;
33864;SDS011;20159;51.072;13.526;2022-07-04T06:25:22;2.17;;;0.85;;
33864;SDS011;20159;51.072;13.526;2022-07-04T06:27:48;1.80;;;1.00;;
33864;SDS011;20159;51.072;13.526;2022-07-04T06:30:16;1.67;;;1.00;;
33864;SDS011;20159;51.072;13.526;2022-07-04T06:32:51;1.77;;;0.98;;
33864;SDS011;20159;51.072;13.526;2022-07-04T06:35:25;1.90;;;0.80;;
33864;SDS011;20159;51.072;13.526;2022-07-04T06:38:13;1.95;;;1.08;;
33864;SDS011;20159;51.072;13.526;2022-07-04T06:40:40;1.73;;;0.60;;
33864;SDS011;20159;51.072;13.526;2022-07-04T06:43:06;4.40;;;0.82;;
33864;SDS011;20159;51.072;13.526;2022-07-04T06:45:32;1.27;;;0.70;;
33864;SDS011;20159;51.072;13.526;2022-07-04T06:48:04;3.13;;;0.80;;
33864;SDS011;20159;51.072;13.526;2022-07-04T06:50:30;1.73;;;0.82;;
33864;SDS011;20159;51.072;13.526;2022-07-04T06:53:03;1.60;;;0.82;;
33864;SDS011;20159;51.072;13.526;2022-07-04T06:55:31;1.13;;;0.90;;
33864;SDS011;20159;51.072;13.526;2022-07-04T06:57:57;5.20;;;1.00;;
33864;SDS011;20159;51.072;13.526;2022-07-04T07:00:23;1.08;;;0.73;;
33864;SDS011;20159;51.072;13.526;2022-07-04T07:02:49;1.65;;;0.80;;
33864;SDS011;20159;51.072;13.526;2022-07-04T07:05:15;1.45;;;0.60;;
33864;SDS011;20159;51.072;13.526;2022-07-04T07:07:40;2.72;;;1.00;;
33864;SDS011;20159;51.072;13.526;2022-07-04T07:10:06;2.25;;;0.70;;
33864;SDS011;20159;51.072;13.526;2022-07-04T07:12:32;2.80;;;0.60;;
33864;SDS011;20159;51.072;13.526;2022-07-04T07:14:59;0.88;;;0.60;;
33864;SDS011;20159;51.072;13.526;2022-07-04T07:17:25;1.95;;;0.80;;
33864;SDS011;20159;51.072;13.526;2022-07-04T07:19:51;1.20;;;0.75;;
33864;SDS011;20159;51.072;13.526;2022-07-04T07:22:17;1.30;;;0.50;;
33864;SDS011;20159;51.072;13.526;2022-07-04T07:24:42;1.27;;;0.60;;
33864;SDS011;20159;51.072;13.526;2022-07-04T07:27:09;1.38;;;0.60;;
33864;SDS011;20159;51.072;13.526;2022-07-04T07:29:35;1.02;;;0.50;;
33864;SDS011;20159;51.072;13.526;2022-07-04T07:32:01;1.60;;;0.82;;
33864;SDS011;20159;51.072;13.526;2022-07-04T07:34:27;1.15;;;0.60;;
33864;SDS011;20159;51.072;13.526;2022-07-04T07:36:53;1.42;;;0.70;;
33864;SDS011;20159;51.072;13.526;2022-07-04T07:39:18;1.92;;;0.80;;
33864;SDS011;20159;51.072;13.526;2022-07-04T07:41:44;1.20;;;0.75;;
33864;SDS011;20159;51.072;13.526;2022-07-04T07:44:10;1.65;;;0.60;;
33864;SDS011;20159;51.072;13.526;2022-07-04T07:46:36;1.70;;;0.80;;
33864;SDS011;20159;51.072;13.526;2022-07-04T07:49:01;2.33;;;0.70;;
33864;SDS011;20159;51.072;13.526;2022-07-04T07:51:28;2.28;;;0.68;;
33864;SDS011;20159;51.072;13.526;2022-07-04T07:53:53;2.13;;;0.70;;
33864;SDS011;20159;51.072;13.526;2022-07-04T07:56:19;3.30;;;0.93;;
33864;SDS011;20159;51.072;13.526;2022-07-04T07:58:44;1.02;;;0.65;;
33864;SDS011;20159;51.072;13.526;2022-07-04T08:01:10;3.60;;;0.90;;
33864;SDS011;20159;51.072;13.526;2022-07-04T08:03:35;1.95;;;0.60;;
33864;SDS011;20159;51.072;13.526;2022-07-04T08:06:20;1.30;;;0.60;;
33864;SDS011;20159;51.072;13.526;2022-07-04T08:08:45;1.08;;;0.68;;
33864;SDS011;20159;51.072;13.526;2022-07-04T08:11:11;1.45;;;0.60;;
33864;SDS011;20159;51.072;13.526;2022-07-04T08:13:37;1.70;;;0.63;;
33864;SDS011;20159;51.072;13.526;2022-07-04T08:16:03;1.98;;;0.68;;
33864;SDS011;20159;51.072;13.526;2022-07-04T08:18:29;1.90;;;0.68;;
33864;SDS011;20159;51.072;13.526;2022-07-04T08:20:55;1.70;;;0.70;;
33864;SDS011;20159;51.072;13.526;2022-07-04T08:23:20;1.88;;;0.70;;
33864;SDS011;20159;51.072;13.526;2022-07-04T08:25:46;1.45;;;0.40;;
33864;SDS011;20159;51.072;13.526;2022-07-04T08:28:11;2.78;;;0.70;;
33864;SDS011;20159;51.072;13.526;2022-07-04T08:30:37;1.65;;;0.63;;
33864;SDS011;20159;51.072;13.526;2022-07-04T08:33:02;1.60;;;0.50;;
33864;SDS011;20159;51.072;13.526;2022-07-04T08:35:28;1.85;;;0.68;;
33864;SDS011;20159;51.072;13.526;2022-07-04T08:37:54;2.17;;;0.70;;
33864;SDS011;20159;51.072;13.526;2022-07-04T08:40:23;1.52;;;0.70;;
33864;SDS011;20159;51.072;13.526;2022-07-04T08:42:50;1.10;;;0.45;;
33864;SDS011;20159;51.072;13.526;2022-07-04T08:45:16;1.85;;;0.57;;
33864;SDS011;20159;51.072;13.526;2022-07-04T08:47:48;1.38;;;0.60;;
33864;SDS011;20159;51.072;13.526;2022-07-04T08:50:26;2.65;;;0.75;;
33864;SDS011;20159;51.072;13.526;2022-07-04T08:53:20;2.00;;;0.60;;
33864;SDS011;20159;51.072;13.526;2022-07-04T08:55:45;0.82;;;0.47;;
33864;SDS011;20159;51.072;13.526;2022-07-04T08:58:30;1.92;;;0.52;;
33864;SDS011;20159;51.072;13.526;2022-07-04T09:00:57;1.48;;;0.57;;
33864;SDS011;20159;51.072;13.526;2022-07-04T09:03:26;1.58;;;0.60;;
33864;SDS011;20159;51.072;13.526;2022-07-04T09:05:53;1.35;;;0.70;;
33864;SDS011;20159;51.072;13.526;2022-07-04T09:08:19;1.70;;;0.70;;
33864;SDS011;20159;51.072;13.526;2022-07-04T09:10:44;1.40;;;0.52;;
33864;SDS011;20159;51.072;13.526;2022-07-04T09:13:11;1.30;;;0.43;;
33864;SDS011;20159;51.072;13.526;2022-07-04T09:15:40;2.15;;;0.75;;
33864;SDS011;20159;51.072;13.526;2022-07-04T09:18:18;1.30;;;0.45;;
33864;SDS011;20159;51.072;13.526;2022-07-04T09:20:45;1.20;;;0.38;;
33864;SDS011;20159;51.072;13.526;2022-07-04T09:23:20;1.10;;;0.65;;
33864;SDS011;20159;51.072;13.526;2022-07-04T09:26:05;1.50;;;0.80;;
33864;SDS011;20159;51.072;13.526;2022-07-04T09:28:34;1.17;;;0.50;;
33864;SDS011;20159;51.072;13.526;2022-07-04T09:31:00;1.13;;;0.50;;
33864;SDS011;20159;51.072;13.526;2022-07-04T09:33:44;1.10;;;0.55;;
33864;SDS011;20159;51.072;13.526;2022-07-04T09:36:12;2.05;;;0.52;;
33864;SDS011;20159;51.072;13.526;2022-07-04T09:38:38;0.85;;;0.52;;
33864;SDS011;20159;51.072;13.526;2022-07-04T09:41:04;2.78;;;0.55;;
33864;SDS011;20159;51.072;13.526;2022-07-04T09:43:57;0.85;;;0.52;;
33864;SDS011;20159;51.072;13.526;2022-07-04T09:46:24;1.50;;;0.50;;
33864;SDS011;20159;51.072;13.526;2022-07-04T09:48:50;1.27;;;0.45;;
33864;SDS011;20159;51.072;13.526;2022-07-04T09:51:22;3.08;;;0.80;;
33864;SDS011;20159;51.072;13.526;2022-07-04T09:54:14;1.70;;;0.60;;
33864;SDS011;20159;51.072;13.526;2022-07-04T09:56:51;1.67;;;0.55;;
33864;SDS011;20159;51.072;13.526;2022-07-04T09:59:21;1.77;;;0.60;;
33864;SDS011;20159;51.072;13.526;2022-07-04T10:01:47;1.88;;;0.70;;
33864;SDS011;20159;51.072;13.526;2022-07-04T10:04:13;1.48;;;0.60;;
33864;SDS011;20159;51.072;13.526;2022-07-04T10:06:40;1.38;;;0.50;;
33864;SDS011;20159;51.072;13.526;2022-07-04T10:09:24;1.20;;;0.60;;
33864;SDS011;20159;51.072;13.526;2022-07-04T10:11:53;1.98;;;0.75;;
33864;SDS011;20159;51.072;13.526;2022-07-04T10:14:19;2.30;;;0.60;;
33864;SDS011;20159;51.072;13.526;2022-07-04T10:16:44;3.25;;;0.73;;
33864;SDS011;20159;51.072;13.526;2022-07-04T10:19:10;1.40;;;0.70;;
33864;SDS011;20159;51.072;13.526;2022-07-04T10:21:37;3.33;;;1.00;;
33864;SDS011;20159;51.072;13.526;2022-07-04T10:24:03;1.50;;;0.50;;
33864;SDS011;20159;51.072;13.526;2022-07-04T10:26:29;1.52;;;0.80;;
33864;SDS011;20159;51.072;13.526;2022-07-04T10:28:56;1.85;;;0.50;;
33864;SDS011;20159;51.072;13.526;2022-07-04T10:31:22;1.42;;;0.40;;
33864;SDS011;20159;51.072;13.526;2022-07-04T10:33:51;1.75;;;0.50;;
33864;SDS011;20159;51.072;13.526;2022-07-04T10:36:19;2.70;;;0.60;;
33864;SDS011;20159;51.072;13.526;2022-07-04T10:38:47;2.00;;;0.57;;
33864;SDS011;20159;51.072;13.526;2022-07-04T10:41:14;2.13;;;0.60;;
33864;SDS011;20159;51.072;13.526;2022-07-04T10:46:23;1.73;;;0.77;;
33864;SDS011;20159;51.072;13.526;2022-07-04T10:49:03;2.78;;;0.52;;
33864;SDS011;20159;51.072;13.526;2022-07-04T10:54:29;1.23;;;0.50;;
33864;SDS011;20159;51.072;13.526;2022-07-04T11:00:06;0.98;;;0.60;;
33864;SDS011;20159;51.072;13.526;2022-07-04T11:02:33;1.80;;;0.30;;
33864;SDS011;20159;51.072;13.526;2022-07-04T11:05:07;2.15;;;0.50;;
33864;SDS011;20159;51.072;13.526;2022-07-04T11:18:02;1.02;;;0.65;;
33864;SDS011;20159;51.072;13.526;2022-07-04T11:23:48;1.40;;;0.63;;
33864;SDS011;20159;51.072;13.526;2022-07-04T11:26:16;3.20;;;0.60;;
33864;SDS011;20159;51.072;13.526;2022-07-04T11:31:45;1.67;;;0.60;;
33864;SDS011;20159;51.072;13.526;2022-07-04T11:34:13;1.27;;;0.60;;
33864;SDS011;20159;51.072;13.526;2022-07-04T11:36:51;1.35;;;0.40;;
33864;SDS011;20159;51.072;13.526;2022-07-04T11:39:19;0.82;;;0.45;;
33864;SDS011;20159;51.072;13.526;2022-07-04T11:41:52;1.10;;;0.50;;
33864;SDS011;20159;51.072;13.526;2022-07-04T11:44:37;2.20;;;0.60;;
33864;SDS011;20159;51.072;13.526;2022-07-04T11:47:33;1.40;;;0.40;;
33864;SDS011;20159;51.072;13.526;2022-07-04T11:50:07;1.83;;;0.50;;
33864;SDS011;20159;51.072;13.526;2022-07-04T11:55:03;1.52;;;0.60;;
33864;SDS011;20159;51.072;13.526;2022-07-04T11:57:34;1.75;;;0.52;;
33864;SDS011;20159;51.072;13.526;2022-07-04T12:00:08;1.13;;;0.40;;
33864;SDS011;20159;51.072;13.526;2022-07-04T12:02:39;0.75;;;0.40;;
33864;SDS011;20159;51.072;13.526;2022-07-04T12:05:06;1.88;;;0.80;;
33864;SDS011;20159;51.072;13.526;2022-07-04T12:07:37;1.55;;;0.68;;
33864;SDS011;20159;51.072;13.526;2022-07-04T12:10:07;2.00;;;0.63;;
33864;SDS011;20159;51.072;13.526;2022-07-04T12:15:43;1.45;;;0.43;;
33864;SDS011;20159;51.072;13.526;2022-07-04T12:18:20;1.20;;;0.40;;
33864;SDS011;20159;51.072;13.526;2022-07-04T12:20:56;1.00;;;0.40;;
33864;SDS011;20159;51.072;13.526;2022-07-04T12:23:49;1.30;;;0.55;;
33864;SDS011;20159;51.072;13.526;2022-07-04T12:26:15;2.65;;;0.50;;
33864;SDS011;20159;51.072;13.526;2022-07-04T12:28:41;1.20;;;0.50;;
33864;SDS011;20159;51.072;13.526;2022-07-04T12:31:07;1.55;;;0.40;;
33864;SDS011;20159;51.072;13.526;2022-07-04T12:33:33;1.20;;;0.50;;
33864;SDS011;20159;51.072;13.526;2022-07-04T12:35:59;1.35;;;0.50;;
33864;SDS011;20159;51.072;13.526;2022-07-04T12:40:53;2.55;;;0.60;;
33864;SDS011;20159;51.072;13.526;2022-07-04T12:43:43;1.73;;;0.40;;
33864;SDS011;20159;51.072;13.526;2022-07-04T12:46:12;1.88;;;0.40;;
33864;SDS011;20159;51.072;13.526;2022-07-04T12:48:39;1.10;;;0.45;;
33864;SDS011;20159;51.072;13.526;2022-07-04T12:51:13;1.27;;;0.50;;
33864;SDS011;20159;51.072;13.526;2022-07-04T12:53:45;1.65;;;0.40;;
33864;SDS011;20159;51.072;13.526;2022-07-04T12:59:02;3.03;;;0.45;;
33864;SDS011;20159;51.072;13.526;2022-07-04T13:01:29;1.58;;;0.50;;
33864;SDS011;20159;51.072;13.526;2022-07-04T13:03:55;1.45;;;0.60;;
33864;SDS011;20159;51.072;13.526;2022-07-04T13:06:21;0.65;;;0.40;;
33864;SDS011;20159;51.072;13.526;2022-07-04T13:08:53;2.47;;;0.45;;
33864;SDS011;20159;51.072;13.526;2022-07-04T13:11:22;1.38;;;0.30;;
33864;SDS011;20159;51.072;13.526;2022-07-04T13:14:10;0.88;;;0.35;;
33864;SDS011;20159;51.072;13.526;2022-07-04T13:16:35;2.45;;;0.50;;
33864;SDS011;20159;51.072;13.526;2022-07-04T13:19:01;1.60;;;0.30;;
33864;SDS011;20159;51.072;13.526;2022-07-04T13:21:27;2.65;;;0.75;;
33864;SDS011;20159;51.072;13.526;2022-07-04T13:23:53;1.40;;;0.40;;
33864;SDS011;20159;51.072;13.526;2022-07-04T13:26:19;1.75;;;0.60;;
33864;SDS011;20159;51.072;13.526;2022-07-04T13:28:44;1.67;;;0.50;;
33864;SDS011;20159;51.072;13.526;2022-07-04T13:31:15;2.45;;;0.50;;
33864;SDS011;20159;51.072;13.526;2022-07-04T13:33:44;0.93;;;0.60;;
33864;SDS011;20159;51.072;13.526;2022-07-04T13:36:12;0.77;;;0.40;;
33864;SDS011;20159;51.072;13.526;2022-07-04T13:38:51;1.67;;;0.40;;
33864;SDS011;20159;51.072;13.526;2022-07-04T13:44:14;2.63;;;0.85;;
33864;SDS011;20159;51.072;13.526;2022-07-04T13:46:43;1.33;;;0.57;;
33864;SDS011;20159;51.072;13.526;2022-07-04T13:49:08;1.30;;;0.65;;
33864;SDS011;20159;51.072;13.526;2022-07-04T13:51:43;2.58;;;0.70;;
33864;SDS011;20159;51.072;13.526;2022-07-04T13:54:19;1.55;;;0.50;;
33864;SDS011;20159;51.072;13.526;2022-07-04T13:56:45;0.88;;;0.40;;
33864;SDS011;20159;51.072;13.526;2022-07-04T13:59:13;2.90;;;0.40;;
33864;SDS011;20159;51.072;13.526;2022-07-04T14:01:39;0.75;;;0.43;;
33864;SDS011;20159;51.072;13.526;2022-07-04T14:04:05;2.65;;;0.50;;
33864;SDS011;20159;51.072;13.526;2022-07-04T14:06:31;2.90;;;0.35;;
33864;SDS011;20159;51.072;13.526;2022-07-04T14:08:57;1.17;;;0.30;;
33864;SDS011;20159;51.072;13.526;2022-07-04T14:11:26;1.30;;;0.30;;
33864;SDS011;20159;51.072;13.526;2022-07-04T14:13:51;2.65;;;0.35;;
33864;SDS011;20159;51.072;13.526;2022-07-04T14:16:17;2.78;;;0.30;;
33864;SDS011;20159;51.072;13.526;2022-07-04T14:18:42;1.65;;;0.45;;
33864;SDS011;20159;51.072;13.526;2022-07-04T14:21:08;1.33;;;0.38;;
33864;SDS011;20159;51.072;13.526;2022-07-04T14:23:33;0.70;;;0.45;;
33864;SDS011;20159;51.072;13.526;2022-07-04T14:26:05;1.38;;;0.60;;
33864;SDS011;20159;51.072;13.526;2022-07-04T14:28:31;1.02;;;0.50;;
33864;SDS011;20159;51.072;13.526;2022-07-04T14:30:57;2.58;;;0.40;;
33864;SDS011;20159;51.072;13.526;2022-07-04T14:33:23;2.15;;;0.50;;
33864;SDS011;20159;51.072;13.526;2022-07-04T14:35:48;2.25;;;0.55;;
33864;SDS011;20159;51.072;13.526;2022-07-04T14:38:14;0.65;;;0.30;;
33864;SDS011;20159;51.072;13.526;2022-07-04T14:40:39;0.35;;;0.25;;
33864;SDS011;20159;51.072;13.526;2022-07-04T14:43:08;0.43;;;0.22;;
33864;SDS011;20159;51.072;13.526;2022-07-04T14:45:34;1.77;;;0.30;;
33864;SDS011;20159;51.072;13.526;2022-07-04T14:47:59;1.40;;;0.35;;
33864;SDS011;20159;51.072;13.526;2022-07-04T14:50:28;1.27;;;0.40;;
33864;SDS011;20159;51.072;13.526;2022-07-04T14:52:53;1.15;;;0.40;;
33864;SDS011;20159;51.072;13.526;2022-07-04T14:55:19;1.55;;;0.40;;
33864;SDS011;20159;51.072;13.526;2022-07-04T14:57:44;0.35;;;0.25;;
33864;SDS011;20159;51.072;13.526;2022-07-04T15:00:10;1.35;;;0.30;;
33864;SDS011;20159;51.072;13.526;2022-07-04T15:02:36;3.13;;;0.43;;
33864;SDS011;20159;51.072;13.526;2022-07-04T15:05:02;2.40;;;0.60;;
33864;SDS011;20159;51.072;13.526;2022-07-04T15:07:27;1.00;;;0.40;;
33864;SDS011;20159;51.072;13.526;2022-07-04T15:09:54;0.70;;;0.30;;
33864;SDS011;20159;51.072;13.526;2022-07-04T15:12:20;3.63;;;0.57;;
33864;SDS011;20159;51.072;13.526;2022-07-04T15:14:46;2.25;;;0.50;;